createdAt,value
2023-05-22T00:01:46.919Z,6.50
2023-05-22T00:04:21.487Z,7.28
2023-05-22T00:06:49.345Z,7.70
2023-05-22T00:09:16.835Z,6.90
2023-05-22T00:11:44.638Z,6.88
2023-05-22T00:14:13.786Z,6.63
2023-05-22T00:16:41.653Z,6.70
2023-05-22T00:19:13.735Z,7.10
2023-05-22T00:21:41.399Z,7.03
2023-05-22T00:24:09.173Z,7.25
2023-05-22T00:26:36.628Z,6.80
2023-05-22T00:29:05.987Z,6.75
2023-05-22T00:31:33.849Z,7.75
2023-05-22T00:34:01.339Z,7.68
2023-05-22T00:36:28.864Z,7.60
2023-05-22T00:38:56.598Z,8.02
2023-05-22T00:41:24.628Z,8.07
2023-05-22T00:43:52.106Z,8.10
2023-05-22T00:46:21.679Z,8.38
2023-05-22T00:48:49.494Z,8.38
2023-05-22T00:51:17.086Z,8.20
2023-05-22T00:53:44.548Z,8.50
2023-05-22T00:56:12.436Z,8.55
2023-05-22T00:58:39.983Z,9.23
2023-05-22T01:01:09.654Z,8.80
2023-05-22T01:03:42.426Z,8.15
2023-05-22T01:06:10.062Z,10.07
2023-05-22T01:08:38.089Z,8.88
2023-05-22T01:11:10.975Z,8.70
2023-05-22T01:13:41.617Z,8.57
2023-05-22T01:16:09.271Z,9.25
2023-05-22T01:18:55.793Z,8.70
2023-05-22T01:21:32.886Z,9.25
2023-05-22T01:24:20.385Z,8.80
2023-05-22T01:27:06.694Z,9.45
2023-05-22T01:29:34.115Z,8.60
2023-05-22T01:32:02.309Z,8.77
2023-05-22T01:34:31.404Z,9.20
2023-05-22T01:36:59.545Z,8.98
2023-05-22T01:39:28.690Z,9.20
2023-05-22T01:41:56.388Z,9.45
2023-05-22T01:44:23.897Z,9.98
2023-05-22T01:46:51.429Z,9.57
2023-05-22T01:49:19.041Z,10.02
2023-05-22T01:51:52.976Z,8.88
2023-05-22T01:54:25.727Z,8.68
2023-05-22T01:57:00.146Z,10.48
2023-05-22T01:59:35.998Z,9.93
2023-05-22T02:02:05.783Z,10.07
2023-05-22T02:04:36.533Z,9.95
2023-05-22T02:07:04.228Z,9.65
2023-05-22T02:09:32.314Z,10.00
2023-05-22T02:12:00.366Z,10.25
2023-05-22T02:14:30.303Z,11.27
2023-05-22T02:16:58.194Z,10.90
2023-05-22T02:19:27.561Z,10.70
2023-05-22T02:21:56.395Z,10.90
2023-05-22T02:24:24.050Z,10.95
2023-05-22T02:26:51.916Z,11.38
2023-05-22T02:29:19.554Z,13.30
2023-05-22T02:31:48.182Z,14.85
2023-05-22T02:34:15.949Z,14.15
2023-05-22T02:36:44.067Z,13.10
2023-05-22T02:39:11.812Z,13.35
2023-05-22T02:41:41.119Z,12.63
2023-05-22T02:44:08.631Z,13.50
2023-05-22T02:46:36.120Z,12.60
2023-05-22T02:49:04.256Z,12.57
2023-05-22T02:51:31.677Z,12.32
2023-05-22T02:53:59.212Z,11.93
2023-05-22T02:56:29.015Z,12.18
2023-05-22T02:58:57.291Z,12.32
2023-05-22T03:01:27.000Z,12.55
2023-05-22T03:03:55.390Z,12.00
2023-05-22T03:06:23.261Z,13.57
2023-05-22T03:08:51.076Z,13.88
2023-05-22T03:11:18.555Z,12.88
2023-05-22T03:13:47.626Z,13.13
2023-05-22T03:16:15.113Z,12.02
2023-05-22T03:18:46.369Z,11.88
2023-05-22T03:21:13.925Z,10.05
2023-05-22T03:23:41.737Z,10.45
2023-05-22T03:26:09.293Z,11.00
2023-05-22T03:28:38.941Z,11.90
2023-05-22T03:31:09.406Z,14.70
2023-05-22T03:33:50.826Z,12.85
2023-05-22T03:36:19.292Z,11.25
2023-05-22T03:38:46.816Z,11.35
2023-05-22T03:41:14.596Z,10.88
2023-05-22T03:43:44.878Z,11.00
2023-05-22T03:46:13.093Z,10.13
2023-05-22T03:48:40.613Z,10.20
2023-05-22T03:51:08.223Z,10.27
2023-05-22T03:53:35.809Z,9.13
2023-05-22T03:56:03.245Z,10.80
2023-05-22T03:58:30.924Z,11.00
2023-05-22T04:01:01.037Z,10.85
2023-05-22T04:03:28.999Z,9.95
2023-05-22T04:05:59.378Z,10.48
2023-05-22T04:08:26.833Z,10.00
2023-05-22T04:10:54.615Z,9.75
2023-05-22T04:13:22.112Z,9.80
2023-05-22T04:15:50.073Z,9.75
2023-05-22T04:18:17.630Z,9.20
2023-05-22T04:20:45.122Z,8.25
2023-05-22T04:23:13.325Z,8.25
2023-05-22T04:25:40.779Z,8.60
2023-05-22T04:28:09.428Z,8.88
2023-05-22T04:30:40.506Z,8.50
2023-05-22T04:33:08.491Z,9.82
2023-05-22T04:35:36.098Z,8.90
2023-05-22T04:38:06.363Z,10.15
2023-05-22T04:40:34.386Z,8.77
2023-05-22T04:43:01.905Z,8.65
2023-05-22T04:45:31.314Z,9.40
2023-05-22T04:48:02.652Z,9.88
2023-05-22T04:50:34.441Z,9.48
2023-05-22T04:53:06.192Z,9.25
2023-05-22T04:55:37.034Z,10.70
2023-05-22T04:58:05.933Z,10.75
2023-05-22T05:00:33.429Z,10.18
2023-05-22T05:03:01.021Z,10.13
2023-05-22T05:05:28.514Z,10.88
2023-05-22T05:07:56.793Z,10.73
2023-05-22T05:10:24.343Z,9.50
2023-05-22T05:12:53.316Z,8.82
2023-05-22T05:15:22.865Z,9.65
2023-05-22T05:17:51.559Z,8.98
2023-05-22T05:20:19.042Z,9.57
2023-05-22T05:22:46.498Z,8.68
2023-05-22T05:25:15.641Z,8.60
2023-05-22T05:27:43.893Z,8.20
2023-05-22T05:30:11.738Z,8.18
2023-05-22T05:32:59.502Z,8.20
2023-05-22T05:35:34.587Z,7.63
2023-05-22T05:38:05.009Z,7.45
2023-05-22T05:40:34.210Z,7.80
2023-05-22T05:43:01.846Z,7.82
2023-05-22T05:45:30.308Z,9.52
2023-05-22T05:47:58.572Z,10.65
2023-05-22T05:50:26.351Z,7.68
2023-05-22T05:52:54.813Z,7.35
2023-05-22T05:55:22.420Z,7.03
2023-05-22T05:57:50.581Z,7.00
2023-05-22T06:00:24.811Z,7.18
2023-05-22T06:02:54.019Z,7.10
2023-05-22T06:05:45.982Z,6.32
2023-05-22T06:08:45.611Z,6.75
2023-05-22T06:11:13.417Z,6.57
2023-05-22T06:13:53.683Z,6.97
2023-05-22T06:16:21.321Z,6.93
2023-05-22T06:18:49.653Z,7.10
2023-05-22T06:21:17.912Z,6.65
2023-05-22T06:23:45.352Z,6.63
2023-05-22T06:26:13.859Z,6.93
2023-05-22T06:28:43.558Z,6.97
2023-05-22T06:31:11.762Z,8.20
2023-05-22T06:33:43.689Z,7.10
2023-05-22T06:36:11.730Z,6.72
2023-05-22T06:38:39.381Z,7.07
2023-05-22T06:41:14.440Z,6.60
2023-05-22T06:43:42.418Z,5.70
2023-05-22T06:46:13.404Z,6.28
2023-05-22T06:48:52.220Z,6.22
2023-05-22T06:51:25.515Z,5.32
2023-05-22T06:53:59.343Z,5.53
2023-05-22T06:56:31.938Z,4.95
2023-05-22T06:59:12.094Z,5.20
2023-05-22T07:01:58.178Z,5.32
2023-05-22T07:05:00.949Z,5.10
2023-05-22T07:07:37.235Z,4.90
2023-05-22T07:10:04.882Z,4.78
2023-05-22T07:12:32.418Z,4.97
2023-05-22T07:15:00.318Z,5.28
2023-05-22T07:17:28.803Z,5.60
2023-05-22T07:19:57.573Z,4.90
2023-05-22T07:22:26.108Z,4.95
2023-05-22T07:24:55.050Z,5.15
2023-05-22T07:27:24.587Z,4.70
2023-05-22T07:29:52.091Z,5.43
2023-05-22T07:32:20.470Z,5.55
2023-05-22T07:34:49.708Z,5.22
2023-05-22T07:37:17.311Z,4.70
2023-05-22T07:39:47.919Z,4.97
2023-05-22T07:42:15.893Z,6.57
2023-05-22T07:44:53.129Z,5.00
2023-05-22T07:47:22.036Z,5.45
2023-05-22T07:49:50.792Z,5.10
2023-05-22T07:52:19.392Z,5.22
2023-05-22T07:54:47.108Z,5.30
2023-05-22T07:57:16.661Z,6.88
2023-05-22T07:59:45.465Z,5.82
2023-05-22T08:02:14.212Z,5.32
2023-05-22T08:04:41.858Z,5.07
2023-05-22T08:07:09.396Z,4.30
2023-05-22T08:09:37.013Z,5.25
2023-05-22T08:12:04.608Z,5.13
2023-05-22T08:14:35.375Z,4.82
2023-05-22T08:17:03.536Z,4.25
2023-05-22T08:19:31.982Z,4.90
2023-05-22T08:21:59.618Z,4.68
2023-05-22T08:24:28.698Z,4.78
2023-05-22T08:26:58.414Z,5.03
2023-05-22T08:29:26.105Z,5.03
2023-05-22T08:31:56.867Z,4.88
2023-05-22T08:34:25.257Z,5.10
2023-05-22T08:36:52.755Z,5.20
2023-05-22T08:39:20.276Z,5.60
2023-05-22T08:41:47.837Z,5.18
2023-05-22T08:44:15.552Z,5.45
2023-05-22T08:46:44.299Z,5.35
2023-05-22T08:49:11.906Z,5.25
2023-05-22T08:51:40.472Z,5.18
2023-05-22T08:54:08.019Z,6.80
2023-05-22T08:56:39.731Z,5.45
2023-05-22T08:59:13.460Z,5.43
2023-05-22T09:01:41.050Z,4.90
2023-05-22T09:04:08.957Z,7.25
2023-05-22T09:06:38.613Z,6.38
2023-05-22T09:09:06.127Z,6.05
2023-05-22T09:11:33.550Z,6.75
2023-05-22T09:14:10.529Z,5.85
2023-05-22T09:16:48.808Z,5.53
2023-05-22T09:19:16.755Z,5.97
2023-05-22T09:21:48.085Z,6.03
2023-05-22T09:24:15.755Z,6.53
2023-05-22T09:26:43.265Z,6.28
2023-05-22T09:29:10.916Z,6.22
2023-05-22T09:31:44.877Z,6.10
2023-05-22T09:34:14.736Z,7.70
2023-05-22T09:36:42.662Z,6.95
2023-05-22T09:39:10.164Z,6.00
2023-05-22T09:41:38.510Z,5.97
2023-05-22T09:44:15.976Z,5.85
2023-05-22T09:46:46.004Z,5.82
2023-05-22T09:49:16.454Z,6.25
2023-05-22T09:51:47.861Z,6.80
2023-05-22T09:54:16.994Z,5.53
2023-05-22T09:56:45.108Z,5.63
2023-05-22T09:59:13.930Z,5.00
2023-05-22T10:01:42.737Z,5.20
2023-05-22T10:04:14.433Z,5.13
2023-05-22T10:06:43.039Z,5.45
2023-05-22T10:09:13.534Z,5.30
2023-05-22T10:11:41.227Z,5.20
2023-05-22T10:14:09.593Z,5.13
2023-05-22T10:16:41.382Z,4.88
2023-05-22T10:19:09.213Z,5.22
2023-05-22T10:21:37.157Z,4.88
2023-05-22T10:24:05.593Z,5.50
2023-05-22T10:26:33.592Z,5.28
2023-05-22T10:29:08.319Z,5.30
2023-05-22T10:31:40.610Z,4.95
2023-05-22T10:34:33.818Z,4.72
2023-05-22T10:37:16.634Z,4.63
2023-05-22T10:39:49.622Z,4.22
2023-05-22T10:42:17.133Z,4.40
2023-05-22T10:44:44.563Z,4.43
2023-05-22T10:47:13.484Z,4.60
2023-05-22T10:49:45.408Z,5.03
2023-05-22T10:52:15.003Z,4.35
2023-05-22T10:54:49.189Z,5.15
2023-05-22T10:57:17.919Z,5.32
2023-05-22T10:59:48.150Z,5.63
2023-05-22T11:02:22.713Z,5.55
2023-05-22T11:04:50.901Z,5.07
2023-05-22T11:07:18.438Z,4.63
2023-05-22T11:09:48.253Z,4.70
2023-05-22T11:12:26.542Z,5.20
2023-05-22T11:14:55.081Z,5.07
2023-05-22T11:17:23.485Z,4.97
2023-05-22T11:19:59.774Z,4.57
2023-05-22T11:22:31.109Z,4.40
2023-05-22T11:24:58.673Z,4.93
2023-05-22T11:27:26.348Z,4.28
2023-05-22T11:29:54.580Z,4.15
2023-05-22T11:32:22.517Z,4.68
2023-05-22T11:34:50.633Z,4.18
2023-05-22T11:37:21.442Z,3.83
2023-05-22T11:40:07.309Z,3.83
2023-05-22T11:42:34.950Z,4.43
2023-05-22T11:45:04.549Z,4.10
2023-05-22T11:47:32.368Z,3.90
2023-05-22T11:50:00.011Z,4.10
2023-05-22T11:52:31.010Z,4.10
2023-05-22T11:54:58.488Z,4.10
2023-05-22T11:57:25.864Z,4.03
2023-05-22T11:59:53.591Z,4.10
2023-05-22T12:02:21.105Z,4.25
2023-05-22T12:04:48.566Z,4.40
2023-05-22T12:07:16.185Z,4.30
2023-05-22T12:09:43.632Z,4.25
2023-05-22T12:12:11.585Z,3.90
2023-05-22T12:14:39.258Z,4.00
2023-05-22T12:17:06.784Z,3.97
2023-05-22T12:19:34.361Z,4.40
2023-05-22T12:22:01.872Z,4.10
2023-05-22T12:24:38.310Z,4.53
2023-05-22T12:27:08.750Z,4.32
2023-05-22T12:29:36.195Z,6.43
2023-05-22T12:32:04.178Z,3.88
2023-05-22T12:34:35.209Z,4.00
2023-05-22T12:37:05.408Z,4.60
2023-05-22T12:39:32.910Z,5.60
2023-05-22T12:42:00.403Z,3.85
2023-05-22T12:44:27.970Z,4.72
2023-05-22T12:46:55.436Z,4.00
2023-05-22T12:49:22.973Z,4.22
2023-05-22T12:51:50.459Z,4.10
2023-05-22T12:54:17.960Z,12.50
2023-05-22T12:56:45.514Z,4.47
2023-05-22T12:59:15.233Z,4.03
2023-05-22T13:01:42.854Z,4.20
2023-05-22T13:04:10.338Z,5.10
2023-05-22T13:06:37.767Z,3.63
2023-05-22T13:09:05.142Z,4.32
2023-05-22T13:11:32.635Z,6.35
2023-05-22T13:14:00.026Z,7.65
2023-05-22T13:16:27.732Z,6.93
2023-05-22T13:18:55.239Z,4.07
2023-05-22T13:21:24.567Z,4.28
2023-05-22T13:23:53.232Z,4.38
2023-05-22T13:26:21.132Z,4.93
2023-05-22T13:28:48.623Z,21.60
2023-05-22T13:31:16.041Z,12.30
2023-05-22T13:33:43.547Z,4.50
2023-05-22T13:36:11.020Z,6.22
2023-05-22T13:38:39.228Z,10.60
2023-05-22T13:41:06.792Z,16.70
2023-05-22T13:43:34.265Z,10.90
2023-05-22T13:46:01.739Z,10.48
2023-05-22T13:48:29.542Z,6.78
2023-05-22T13:50:56.920Z,9.45
2023-05-22T13:53:24.437Z,5.93
2023-05-22T13:55:51.905Z,3.90
2023-05-22T13:58:19.498Z,4.53
2023-05-22T14:00:47.022Z,5.30
2023-05-22T14:03:17.679Z,5.00
2023-05-22T14:05:45.948Z,5.15
2023-05-22T14:08:13.592Z,4.75
2023-05-22T14:10:42.065Z,5.07
2023-05-22T14:13:09.755Z,5.25
2023-05-22T14:15:37.241Z,4.95
2023-05-22T14:18:04.774Z,4.60
2023-05-22T14:20:32.329Z,4.47
2023-05-22T14:22:59.779Z,4.80
2023-05-22T14:25:27.234Z,4.25
2023-05-22T14:27:54.689Z,3.72
2023-05-22T14:30:22.332Z,3.53
2023-05-22T14:32:50.071Z,3.67
2023-05-22T14:35:17.667Z,3.35
2023-05-22T14:37:45.640Z,3.53
2023-05-22T14:40:13.212Z,3.58
2023-05-22T14:42:40.745Z,3.50
2023-05-22T14:45:08.413Z,3.03
2023-05-22T14:47:37.249Z,2.60
2023-05-22T14:50:18.396Z,2.80
2023-05-22T14:52:46.976Z,3.25
2023-05-22T14:55:14.449Z,3.10
2023-05-22T14:57:41.902Z,3.20
2023-05-22T15:00:12.860Z,3.47
2023-05-22T15:02:40.861Z,3.58
2023-05-22T15:05:10.403Z,3.10
2023-05-22T15:07:44.839Z,5.68
2023-05-22T15:10:13.978Z,2.80
2023-05-22T15:12:41.535Z,3.13
2023-05-22T15:15:09.255Z,3.08
2023-05-22T15:17:36.785Z,3.13
2023-05-22T15:20:05.532Z,3.20
2023-05-22T15:22:33.025Z,3.03
2023-05-22T15:25:05.316Z,3.83
2023-05-22T15:27:33.094Z,3.40
2023-05-22T15:30:00.663Z,3.90
2023-05-22T15:32:28.274Z,4.20
2023-05-22T15:34:55.972Z,4.00
2023-05-22T15:37:23.912Z,2.97
2023-05-22T15:39:51.316Z,3.40
2023-05-22T15:42:19.011Z,3.35
2023-05-22T15:44:46.443Z,3.40
2023-05-22T15:47:15.059Z,3.33
2023-05-22T15:49:42.509Z,3.88
2023-05-22T15:52:10.202Z,3.47
2023-05-22T15:54:37.593Z,3.40
2023-05-22T15:57:05.230Z,3.60
2023-05-22T15:59:32.644Z,3.42
2023-05-22T16:02:00.357Z,6.50
2023-05-22T16:04:27.873Z,3.28
2023-05-22T16:06:55.419Z,3.30
2023-05-22T16:09:22.893Z,3.47
2023-05-22T16:11:50.438Z,3.60
2023-05-22T16:14:17.944Z,3.42
2023-05-22T16:16:45.513Z,3.40
2023-05-22T16:19:13.089Z,3.22
2023-05-22T16:21:40.918Z,3.22
2023-05-22T16:24:09.887Z,3.83
2023-05-22T16:26:40.815Z,3.47
2023-05-22T16:29:09.104Z,3.70
2023-05-22T16:31:36.699Z,3.53
2023-05-22T16:34:04.558Z,3.53
2023-05-22T16:36:32.609Z,3.42
2023-05-22T16:39:00.163Z,3.60
2023-05-22T16:41:27.656Z,4.07
2023-05-22T16:43:55.189Z,4.30
2023-05-22T16:46:22.816Z,3.58
2023-05-22T16:48:50.721Z,4.20
2023-05-22T16:51:18.169Z,3.40
2023-05-22T16:53:46.731Z,3.28
2023-05-22T16:56:16.832Z,3.60
2023-05-22T16:58:45.252Z,3.60
2023-05-22T17:01:12.993Z,3.78
2023-05-22T17:03:40.989Z,3.53
2023-05-22T17:06:09.130Z,4.50
2023-05-22T17:08:37.017Z,4.68
2023-05-22T17:11:04.587Z,4.18
2023-05-22T17:13:32.131Z,3.35
2023-05-22T17:15:59.631Z,3.50
2023-05-22T17:18:27.116Z,3.80
2023-05-22T17:20:55.737Z,4.53
2023-05-22T17:23:23.224Z,3.30
2023-05-22T17:25:50.866Z,3.65
2023-05-22T17:28:18.324Z,3.63
2023-05-22T17:30:46.318Z,4.10
2023-05-22T17:33:14.173Z,3.97
2023-05-22T17:35:41.810Z,3.53
2023-05-22T17:38:09.411Z,3.35
2023-05-22T17:40:45.045Z,3.40
2023-05-22T17:43:14.622Z,3.50
2023-05-22T17:45:44.629Z,3.50
2023-05-22T17:48:14.613Z,3.80
2023-05-22T17:50:42.584Z,6.38
2023-05-22T17:53:10.128Z,4.93
2023-05-22T17:55:37.607Z,4.40
2023-05-22T17:58:05.124Z,3.55
2023-05-22T18:00:32.639Z,3.75
2023-05-22T18:03:00.322Z,3.65
2023-05-22T18:05:27.891Z,3.50
2023-05-22T18:07:55.326Z,3.78
2023-05-22T18:10:23.912Z,4.05
2023-05-22T18:12:51.485Z,4.03
2023-05-22T18:15:19.094Z,4.00
2023-05-22T18:17:46.559Z,3.90
2023-05-22T18:20:16.744Z,3.80
2023-05-22T18:22:44.288Z,4.07
2023-05-22T18:25:11.743Z,4.53
2023-05-22T18:27:39.525Z,4.13
2023-05-22T18:30:07.730Z,4.18
2023-05-22T18:32:35.394Z,4.20
2023-05-22T18:35:05.953Z,4.22
2023-05-22T18:37:33.497Z,3.92
2023-05-22T18:40:00.928Z,4.20
2023-05-22T18:42:28.459Z,4.43
2023-05-22T18:44:57.029Z,3.85
2023-05-22T18:50:59.932Z,4.47
2023-05-22T18:53:28.049Z,4.40
2023-05-22T18:55:55.759Z,4.47
2023-05-22T18:58:23.335Z,4.18
2023-05-22T19:00:52.107Z,5.05
2023-05-22T19:03:19.646Z,4.70
2023-05-22T19:05:47.068Z,4.10
2023-05-22T19:08:14.502Z,4.65
2023-05-22T19:10:42.658Z,4.85
2023-05-22T19:13:12.437Z,4.47
2023-05-22T19:15:39.964Z,4.63
2023-05-22T19:18:07.850Z,4.60
2023-05-22T19:20:35.714Z,4.93
2023-05-22T19:23:04.001Z,4.97
2023-05-22T19:25:32.038Z,4.82
2023-05-22T19:27:59.515Z,5.20
2023-05-22T19:30:26.923Z,4.40
2023-05-22T19:33:00.648Z,5.07
2023-05-22T19:35:28.480Z,5.30
2023-05-22T19:37:55.923Z,4.53
2023-05-22T19:40:23.408Z,4.82
2023-05-22T19:42:51.092Z,4.70
2023-05-22T19:45:19.668Z,4.75
2023-05-22T19:47:47.328Z,4.90
2023-05-22T19:50:14.895Z,4.82
2023-05-22T19:52:42.445Z,4.75
2023-05-22T19:55:10.419Z,5.00
2023-05-22T19:57:37.924Z,4.78
2023-05-22T20:00:07.631Z,4.40
2023-05-22T20:02:35.261Z,4.68
2023-05-22T20:05:04.429Z,4.20
2023-05-22T20:07:35.444Z,5.25
2023-05-22T20:10:06.568Z,4.20
2023-05-22T20:12:34.489Z,3.92
2023-05-22T20:15:03.897Z,4.10
2023-05-22T20:17:31.604Z,3.90
2023-05-22T20:19:59.230Z,4.18
2023-05-22T20:22:28.185Z,3.97
2023-05-22T20:24:55.923Z,4.10
2023-05-22T20:27:23.465Z,3.90
2023-05-22T20:29:51.295Z,4.25
2023-05-22T20:32:18.733Z,9.13
2023-05-22T20:34:47.350Z,4.40
2023-05-22T20:37:15.437Z,3.90
2023-05-22T20:39:43.020Z,3.55
2023-05-22T20:42:11.668Z,4.28
2023-05-22T20:44:39.282Z,4.60
2023-05-22T20:47:06.752Z,4.38
2023-05-22T20:49:34.930Z,4.45
2023-05-22T20:52:02.931Z,4.50
2023-05-22T20:54:34.245Z,4.03
2023-05-22T20:57:02.251Z,4.10
2023-05-22T20:59:29.750Z,4.82
2023-05-22T21:01:57.856Z,3.85
2023-05-22T21:04:25.555Z,4.30
2023-05-22T21:06:52.993Z,4.72
2023-05-22T21:09:20.523Z,4.45
2023-05-22T21:11:47.952Z,4.43
2023-05-22T21:14:17.251Z,4.30
2023-05-22T21:16:44.857Z,4.50
2023-05-22T21:19:12.591Z,4.60
2023-05-22T21:21:43.067Z,4.80
2023-05-22T21:24:10.990Z,4.50
2023-05-22T21:26:38.481Z,4.80
2023-05-22T21:29:06.096Z,4.97
2023-05-22T21:31:35.566Z,5.18
2023-05-22T21:34:03.423Z,4.78
2023-05-22T21:36:31.891Z,5.57
2023-05-22T21:39:00.456Z,8.57
2023-05-22T21:41:28.086Z,5.32
2023-05-22T21:43:55.593Z,4.72
2023-05-22T21:46:23.010Z,5.03
2023-05-22T21:48:50.591Z,5.13
2023-05-22T21:51:18.023Z,5.35
2023-05-22T21:53:45.939Z,5.18
2023-05-22T21:56:13.330Z,4.75
2023-05-22T21:58:40.822Z,5.35
2023-05-22T22:01:08.327Z,5.13
2023-05-22T22:03:35.981Z,5.50
2023-05-22T22:06:03.453Z,4.90
2023-05-22T22:08:30.913Z,5.40
2023-05-22T22:10:58.389Z,5.35
2023-05-22T22:13:25.877Z,5.80
2023-05-22T22:15:53.647Z,5.35
2023-05-22T22:18:22.061Z,5.32
2023-05-22T22:20:54.009Z,5.90
2023-05-22T22:23:22.224Z,5.70
2023-05-22T22:25:49.809Z,6.05
2023-05-22T22:28:17.330Z,6.13
2023-05-22T22:30:44.953Z,5.80
2023-05-22T22:33:12.937Z,6.07
2023-05-22T22:35:40.918Z,6.25
2023-05-22T22:38:08.542Z,6.18
2023-05-22T22:40:35.960Z,6.53
2023-05-22T22:43:03.753Z,6.07
2023-05-22T22:45:31.364Z,6.00
2023-05-22T22:48:00.541Z,5.50
2023-05-22T22:50:28.310Z,6.70
2023-05-22T22:52:55.741Z,6.18
2023-05-22T22:55:23.391Z,5.90
2023-05-22T22:57:51.583Z,6.90
2023-05-22T23:00:20.136Z,6.18
2023-05-22T23:02:47.729Z,7.10
2023-05-22T23:05:19.828Z,6.18
2023-05-22T23:07:48.444Z,6.32
2023-05-22T23:10:16.175Z,6.65
2023-05-22T23:12:43.863Z,6.95
2023-05-22T23:15:13.577Z,7.03
2023-05-22T23:17:42.105Z,6.82
2023-05-22T23:20:09.993Z,7.13
2023-05-22T23:22:37.752Z,7.00
2023-05-22T23:25:05.317Z,6.40
2023-05-22T23:27:32.789Z,7.65
2023-05-22T23:30:00.449Z,7.68
2023-05-22T23:32:28.009Z,7.88
2023-05-22T23:34:55.472Z,7.68
2023-05-22T23:37:23.015Z,7.43
2023-05-22T23:39:50.439Z,7.25
2023-05-22T23:42:17.903Z,7.35
2023-05-22T23:44:45.428Z,7.15
2023-05-22T23:47:12.857Z,7.47
2023-05-22T23:49:40.317Z,7.50
2023-05-22T23:52:08.066Z,7.20
2023-05-22T23:54:35.628Z,7.65
2023-05-22T23:57:03.126Z,7.78
2023-05-22T23:59:31.000Z,7.28
